Time;durP1;ratioP1;P1;durP2;ratioP2;P2;SDS_P1;SDS_P2;PMS_P1;PMS_P2;Temp;Humidity;BMP_temperature;BMP_pressure;BME280_temperature;BME280_humidity;BME280_pressure;Samples;Min_cycle;Max_cycle;Signal;HPM_P1;HPM_P2
2022/12/10 00:07:54;;;;;;;20.23;12.00;;;3.40;95.40;;;;;;21065568;28;20215;-67
2022/12/10 00:17:56;;;;;;;21.50;12.03;;;;;;;;;;21065117;28;20297;-67
2022/12/10 00:27:58;;;;;;;20.60;11.87;;;3.60;95.50;;;;;;21064433;28;20238;-66
2022/12/10 00:38:00;;;;;;;17.30;10.80;;;3.70;95.50;;;;;;21063587;28;20207;-67
2022/12/10 00:48:01;;;;;;;23.13;12.57;;;3.70;95.40;;;;;;21013331;28;20207;-66
2022/12/10 00:58:04;;;;;;;20.97;12.80;;;;;;;;;;21006513;28;20207;-67
2022/12/10 01:08:06;;;;;;;18.97;11.03;;;;;;;;;;21005236;28;20207;-68
2022/12/10 01:18:08;;;;;;;20.10;11.00;;;;;;;;;;21004722;28;20651;-67
2022/12/10 01:28:09;;;;;;;20.67;11.27;;;3.60;95.50;;;;;;21003910;28;20293;-67
2022/12/10 01:38:11;;;;;;;21.17;11.50;;;3.50;95.50;;;;;;21003052;28;20273;-67
2022/12/10 01:48:13;;;;;;;36.87;16.27;;;3.40;95.70;;;;;;21002034;28;20209;-68
2022/12/10 01:58:18;;;;;;;19.63;11.97;;;3.30;95.80;;;;;;21000643;28;20219;-68
2022/12/10 02:09:00;;;;;;;23.03;12.53;;;3.30;96.00;;;;;;20985002;28;20561;-67
2022/12/10 02:19:40;;;;;;;22.83;11.27;;;3.20;95.90;;;;;;20983351;28;20203;-69
2022/12/10 02:29:45;;;;;;;16.37;10.83;;;3.10;95.90;;;;;;20981962;28;20211;-66
2022/12/10 02:39:50;;;;;;;19.80;11.57;;;2.90;95.90;;;;;;20982333;28;20227;-65
2022/12/10 02:49:55;;;;;;;17.97;9.90;;;2.70;96.00;;;;;;20981098;28;20222;-65
2022/12/10 03:00:19;;;;;;;16.70;10.73;;;2.50;96.00;;;;;;20980092;28;20231;-66
2022/12/10 03:10:34;;;;;;;19.40;10.63;;;2.70;96.10;;;;;;20979479;28;20244;-65
2022/12/10 03:20:43;;;;;;;18.67;10.87;;;2.50;96.00;;;;;;20923629;28;20645;-65
2022/12/10 03:30:47;;;;;;;22.27;12.03;;;2.30;95.90;;;;;;20923264;28;20258;-66
2022/12/10 03:40:49;;;;;;;19.93;11.80;;;;;;;;;;20922823;28;20232;-68
2022/12/10 03:50:51;;;;;;;18.33;10.90;;;2.10;96.20;;;;;;20921710;28;20266;-68
2022/12/10 04:00:53;;;;;;;23.93;12.00;;;2.10;96.30;;;;;;20920629;28;20239;-68
2022/12/10 04:10:54;;;;;;;35.40;14.73;;;2.20;96.30;;;;;;20920417;28;20204;-69
2022/12/10 04:31:17;;;;;;;22.80;12.03;;;;;;;;;;20917783;28;20208;-69
2022/12/10 04:41:19;;;;;;;23.33;12.57;;;2.30;96.50;;;;;;20918000;28;20231;-69
2022/12/10 04:51:20;;;;;;;27.27;13.00;;;2.30;96.50;;;;;;20916905;28;20258;-69
2022/12/10 05:01:23;;;;;;;21.03;11.53;;;2.40;96.70;;;;;;20915874;28;20239;-68
2022/12/10 05:11:28;;;;;;;21.20;12.07;;;1.50;96.20;;;;;;20915664;28;20208;-68
2022/12/10 05:31:51;;;;;;;21.00;11.83;;;2.40;96.70;;;;;;20913899;28;20209;-69
2022/12/10 05:41:53;;;;;;;19.43;12.33;;;;;;;;;;20913463;28;20243;-69
2022/12/10 05:51:56;;;;;;;22.70;12.57;;;2.40;96.70;;;;;;20912929;28;20204;-70
2022/12/10 06:01:58;;;;;;;21.77;12.43;;;;;;;;;;20912392;28;20253;-70
2022/12/10 06:11:59;;;;;;;21.10;12.00;;;2.40;96.80;;;;;;20912391;28;20261;-70
2022/12/10 06:22:01;;;;;;;23.43;13.33;;;2.70;97.10;;;;;;20911555;28;20231;-70
2022/12/10 06:32:03;;;;;;;21.50;11.87;;;2.60;96.90;;;;;;20911411;28;20204;-71
2022/12/10 06:42:05;;;;;;;19.30;11.47;;;;;;;;;;20911196;28;20285;-71
2022/12/10 06:52:07;;;;;;;20.80;11.77;;;;;;;;;;20920606;28;20210;-72
2022/12/10 07:02:10;;;;;;;19.13;11.33;;;2.70;96.80;;;;;;20925332;28;20236;-75
2022/12/10 07:12:12;;;;;;;21.77;12.67;;;;;;;;;;20928543;28;20207;-74
2022/12/10 07:22:14;;;;;;;22.13;11.97;;;;;;;;;;20922814;28;20233;-72
2022/12/10 07:32:16;;;;;;;22.43;12.13;;;;;;;;;;20923619;28;20208;-69
2022/12/10 07:42:19;;;;;;;23.43;12.93;;;;;;;;;;20921870;28;20227;-70
2022/12/10 07:52:21;;;;;;;24.07;12.83;;;;;;;;;;20920864;28;20266;-73
2022/12/10 08:02:23;;;;;;;28.63;13.93;;;;;;;;;;20920626;28;20232;-72
2022/12/10 08:12:25;;;;;;;25.33;13.57;;;;;;;;;;20920312;28;20254;-70
2022/12/10 08:22:27;;;;;;;26.17;13.63;;;;;;;;;;20919829;28;20270;-67
2022/12/10 08:32:28;;;;;;;27.50;14.53;;;3.00;96.70;;;;;;20920671;28;20270;-73
2022/12/10 08:42:31;;;;;;;23.17;14.50;;;3.00;96.70;;;;;;20937089;28;20236;-69
2022/12/10 08:52:33;;;;;;;24.17;14.57;;;3.20;96.90;;;;;;20914699;28;20609;-72
2022/12/10 09:02:35;;;;;;;26.37;15.63;;;3.50;96.90;;;;;;20915744;28;20764;-71
2022/12/10 09:12:37;;;;;;;25.50;14.90;;;3.60;96.90;;;;;;20914804;28;20214;-69
2022/12/10 09:22:39;;;;;;;25.77;15.53;;;3.80;96.70;;;;;;20915033;28;20243;-68
2022/12/10 09:32:41;;;;;;;28.33;14.67;;;4.00;96.70;;;;;;20913947;28;20255;-70
2022/12/10 09:42:58;;;;;;;29.00;15.90;;;4.10;96.40;;;;;;20913283;28;20232;-70
2022/12/10 09:53:02;;;;;;;24.60;14.47;;;4.40;96.50;;;;;;20913234;28;20207;-71
2022/12/10 10:03:06;;;;;;;27.40;16.33;;;4.50;96.20;;;;;;20911997;28;20253;-73
2022/12/10 10:13:07;;;;;;;25.80;15.57;;;4.50;96.50;;;;;;20912177;28;20205;-72
2022/12/10 10:23:13;;;;;;;27.13;14.47;;;4.40;95.80;;;;;;20915853;28;20240;-70
2022/12/10 10:33:15;;;;;;;28.93;14.83;;;4.40;95.70;;;;;;20927676;28;20213;-72
2022/12/10 10:43:24;;;;;;;26.03;14.77;;;4.40;95.60;;;;;;20926911;28;20235;-68
2022/12/10 10:53:38;;;;;;;24.73;14.13;;;4.50;95.40;;;;;;20926694;28;20652;-68
2022/12/10 11:03:47;;;;;;;24.83;14.27;;;4.80;94.90;;;;;;20925282;28;20299;-69
2022/12/10 11:13:48;;;;;;;25.53;15.30;;;4.70;95.10;;;;;;20924922;28;20217;-73
2022/12/10 11:23:54;;;;;;;24.53;15.10;;;5.00;94.60;;;;;;20924116;28;20236;-68
2022/12/10 11:34:13;;;;;;;21.07;13.40;;;5.30;94.30;;;;;;20921426;28;20265;-71
2022/12/10 11:44:50;;;;;;;19.57;12.37;;;5.60;94.00;;;;;;20945824;28;20234;-70
2022/12/10 11:55:02;;;;;;;18.67;11.50;;;5.60;93.60;;;;;;20985524;28;20260;-71
2022/12/10 12:05:41;;;;;;;22.93;12.70;;;5.70;93.30;;;;;;20920202;28;20300;-73
2022/12/10 12:15:50;;;;;;;18.63;11.57;;;5.60;92.80;;;;;;20970047;28;20202;-73
2022/12/10 12:26:13;;;;;;;17.57;11.03;;;5.60;92.50;;;;;;21002542;28;20248;-71
2022/12/10 12:36:22;;;;;;;14.87;9.87;;;5.50;92.20;;;;;;21001012;28;20237;-73
2022/12/10 12:46:35;;;;;;;17.60;10.63;;;5.50;91.90;;;;;;20977687;28;20234;-74
2022/12/10 12:57:01;;;;;;;18.83;11.30;;;5.50;91.80;;;;;;20917079;28;20205;-70
2022/12/10 13:07:15;;;;;;;15.73;10.00;;;5.50;91.60;;;;;;20914441;28;20292;-71
2022/12/10 13:17:36;;;;;;;17.97;10.97;;;5.50;91.60;;;;;;20914907;28;20255;-69
2022/12/10 13:27:39;;;;;;;16.77;9.57;;;5.50;91.40;;;;;;20914282;28;20240;-68
2022/12/10 13:37:49;;;;;;;17.27;10.63;;;5.30;91.60;;;;;;20913254;28;20209;-69
2022/12/10 13:48:11;;;;;;;18.37;10.67;;;5.00;91.90;;;;;;20946539;28;20746;-72
2022/12/10 13:58:26;;;;;;;18.03;10.67;;;4.90;92.30;;;;;;20915256;28;20206;-71
2022/12/10 14:08:35;;;;;;;18.53;11.13;;;4.80;92.40;;;;;;20912892;28;20246;-73
2022/12/10 14:18:38;;;;;;;21.07;11.93;;;4.70;92.60;;;;;;20912320;28;20217;-71
2022/12/10 14:28:42;;;;;;;11.47;7.13;;;4.20;93.20;;;;;;20911713;28;20247;-75
2022/12/10 14:38:47;;;;;;;11.60;7.30;;;3.70;94.60;;;;;;20911389;28;20268;-72
2022/12/10 14:48:54;;;;;;;16.37;9.53;;;3.60;95.50;;;;;;20952043;28;20231;-70
2022/12/10 14:59:15;;;;;;;13.00;7.67;;;3.80;95.70;;;;;;20992847;28;20295;-72
2022/12/10 15:09:25;;;;;;;14.40;8.17;;;3.70;95.70;;;;;;20996619;28;20236;-70
2022/12/10 15:19:29;;;;;;;16.57;9.37;;;3.70;95.80;;;;;;20960873;28;20197;-68
2022/12/10 15:29:34;;;;;;;18.30;10.87;;;3.70;95.90;;;;;;20923038;28;20289;-71
2022/12/10 15:39:43;;;;;;;22.07;12.20;;;3.70;96.30;;;;;;20922712;28;20248;-71
2022/12/10 15:49:47;;;;;;;24.47;13.87;;;3.70;96.50;;;;;;20938220;28;20234;-72
2022/12/10 15:59:54;;;;;;;20.63;12.23;;;3.70;96.90;;;;;;20921385;28;20297;-72
2022/12/10 16:09:56;;;;;;;20.93;12.23;;;3.70;97.00;;;;;;20918757;28;20290;-65
2022/12/10 16:20:25;;;;;;;23.63;13.03;;;3.70;97.00;;;;;;20918348;28;20214;-68
2022/12/10 16:30:41;;;;;;;23.30;13.57;;;3.80;97.10;;;;;;20918878;28;20208;-68
2022/12/10 16:40:49;;;;;;;22.13;13.43;;;3.50;97.10;;;;;;20918180;28;20699;-68
2022/12/10 16:50:52;;;;;;;19.37;11.97;;;3.50;97.20;;;;;;20917319;28;20616;-68
2022/12/10 17:00:54;;;;;;;20.93;12.93;;;3.40;97.10;;;;;;20916265;28;20239;-68
2022/12/10 17:21:17;;;;;;;24.23;13.93;;;3.30;97.10;;;;;;20915234;28;20629;-68
2022/12/10 17:31:19;;;;;;;23.93;14.67;;;;;;;;;;20913964;28;20211;-68
2022/12/10 17:41:21;;;;;;;25.20;14.90;;;3.00;97.00;;;;;;20913406;28;20599;-68
2022/12/10 17:51:23;;;;;;;23.93;13.30;;;2.90;97.00;;;;;;20913613;28;20204;-69
2022/12/10 18:01:28;;;;;;;23.63;13.67;;;2.70;97.10;;;;;;20912486;28;20258;-68
2022/12/10 18:11:34;;;;;;;26.47;15.83;;;2.60;97.10;;;;;;20912048;28;20211;-67
2022/12/10 18:21:36;;;;;;;31.73;17.07;;;2.60;97.20;;;;;;20933969;28;20289;-67
2022/12/10 18:31:38;;;;;;;33.27;16.83;;;;;;;;;;20975163;28;20636;-65
2022/12/10 18:41:40;;;;;;;30.77;16.67;;;;;;;;;;20917194;28;20239;-65
2022/12/10 18:51:42;;;;;;;29.47;15.90;;;;;;;;;;20926642;28;20200;-68
2022/12/10 19:01:45;;;;;;;35.03;17.50;;;;;;;;;;20925624;28;20231;-69
2022/12/10 19:11:48;;;;;;;33.13;17.97;;;2.90;97.40;;;;;;20924812;28;20217;-70
2022/12/10 19:21:50;;;;;;;36.77;26.60;;;3.10;97.70;;;;;;20922137;28;20513;-69
2022/12/10 19:31:52;;;;;;;34.93;19.33;;;3.10;97.60;;;;;;20991385;28;20547;-72
2022/12/10 19:41:54;;;;;;;28.67;21.75;;;3.30;97.50;;;;;;21000213;28;20575;-68
2022/12/10 19:51:55;;;;;;;29.57;16.57;;;3.30;97.30;;;;;;21005440;28;20270;-72
2022/12/10 20:01:57;;;;;;;27.00;15.53;;;3.20;96.90;;;;;;21001318;28;20714;-69
2022/12/10 20:12:01;;;;;;;25.27;15.03;;;3.10;96.80;;;;;;21001651;28;20239;-71
2022/12/10 20:22:04;;;;;;;28.60;15.70;;;;;;;;;;21000249;28;20239;-64
2022/12/10 20:32:06;;;;;;;25.67;15.07;;;2.80;96.30;;;;;;20999310;28;20211;-72
2022/12/10 20:42:08;;;;;;;27.90;15.77;;;;;;;;;;20998364;28;20249;-72
2022/12/10 20:52:10;;;;;;;26.27;15.03;;;;;;;;;;20997931;28;20265;-69
2022/12/10 21:02:14;;;;;;;28.23;15.53;;;;;;;;;;20996541;28;20250;-64
2022/12/10 21:12:16;;;;;;;27.73;15.60;;;2.50;96.70;;;;;;20994602;28;20201;-69
2022/12/10 21:22:17;;;;;;;27.93;15.60;;;4.90;97.70;;;;;;20995801;28;20227;-65
2022/12/10 21:32:19;;;;;;;25.67;15.00;;;2.40;96.70;;;;;;20994856;28;20663;-69
2022/12/10 21:52:42;;;;;;;24.43;14.47;;;;;;;;;;20994087;28;20724;-71
2022/12/10 22:02:45;;;;;;;25.77;14.70;;;2.50;96.50;;;;;;20993143;28;20239;-67
2022/12/10 22:12:47;;;;;;;24.93;14.67;;;;;;;;;;20992772;28;20218;-74
2022/12/10 22:22:49;;;;;;;25.60;13.30;;;;;;;;;;21005094;28;20238;-73
2022/12/10 22:32:51;;;;;;;26.57;14.20;;;;;;;;;;21008590;28;20261;-66
2022/12/10 22:42:53;;;;;;;26.67;14.17;;;2.30;96.00;;;;;;21007514;28;20280;-64
2022/12/10 22:53:15;;;;;;;23.87;13.47;;;2.40;95.80;;;;;;21008643;28;20632;-64
2022/12/10 23:03:17;;;;;;;23.30;13.37;;;;;;;;;;21006300;28;20239;-65
2022/12/10 23:13:22;;;;;;;25.30;13.87;;;2.40;95.60;;;;;;21005700;28;20255;-69
2022/12/10 23:23:25;;;;;;;19.43;11.53;;;2.30;95.30;;;;;;21005227;28;20759;-66
2022/12/10 23:33:26;;;;;;;19.00;11.50;;;2.50;95.20;;;;;;21003450;28;20211;-66
2022/12/10 23:43:28;;;;;;;20.07;12.20;;;-0.20;93.80;;;;;;21003187;28;20227;-66
2022/12/10 23:53:31;;;;;;;19.63;12.03;;;2.40;94.80;;;;;;21003150;28;20820;-66
